Time;durP1;ratioP1;P1;durP2;ratioP2;P2;SDS_P1;SDS_P2;PMS_P1;PMS_P2;Temp;Humidity;BMP_temperature;BMP_pressure;BME280_temperature;BME280_humidity;BME280_pressure;Samples;Min_cycle;Max_cycle;Signal;HPM_P1;HPM_P2
2022/02/12 00:00:30;;;;;;;23.65;6.10;;;;;;;-0.17;69.63;100609.47;2618207;54;20122;-63
2022/02/12 00:03:02;;;;;;;12.48;5.47;;;;;;;-0.31;69.92;100611.03;2618301;54;20037;-64
2022/02/12 00:05:32;;;;;;;13.73;5.95;;;;;;;-0.40;70.26;100614.13;2618130;54;20019;-63
2022/02/12 00:08:03;;;;;;;17.60;6.65;;;;;;;-0.41;70.67;100612.44;2618101;54;20030;-63
2022/02/12 00:10:33;;;;;;;17.50;6.25;;;;;;;-0.33;70.65;100609.44;2618690;54;20529;-64
2022/02/12 00:13:08;;;;;;;16.75;7.57;;;;;;;-0.32;70.74;100611.13;2619866;54;20102;-63
2022/02/12 00:15:38;;;;;;;23.45;7.60;;;;;;;-0.36;70.46;100604.41;2619947;54;20522;-64
2022/02/12 00:18:11;;;;;;;17.02;6.82;;;;;;;-0.34;70.80;100605.16;2619540;47;20035;-63
2022/02/12 00:20:40;;;;;;;16.15;6.28;;;;;;;-0.36;70.30;100604.41;2619328;47;20030;-64
2022/02/12 00:23:10;;;;;;;17.38;7.00;;;;;;;-0.53;70.65;100595.72;2618477;54;20042;-64
2022/02/12 00:25:40;;;;;;;11.10;6.03;;;;;;;-0.43;70.93;100595.25;2617730;54;20566;-63
2022/02/12 00:28:09;;;;;;;18.38;6.80;;;;;;;-0.42;70.46;100597.75;2618004;54;20154;-63
2022/02/12 00:30:39;;;;;;;15.32;6.50;;;;;;;-0.49;71.02;100596.41;2618141;54;20031;-64
2022/02/12 00:33:12;;;;;;;17.17;6.13;;;;;;;-0.52;70.94;100594.78;2618782;54;20043;-63
2022/02/12 00:35:41;;;;;;;16.75;6.68;;;;;;;-0.57;71.06;100582.97;2619425;54;20549;-62
2022/02/12 00:38:11;;;;;;;15.73;6.70;;;;;;;-0.51;71.45;100580.88;2621132;54;20026;-64
2022/02/12 00:40:41;;;;;;;17.48;6.60;;;;;;;-0.48;70.78;100574.69;2619054;54;20041;-65
2022/02/12 00:43:11;;;;;;;17.02;7.97;;;;;;;-0.55;70.95;100574.16;2617829;54;20042;-65
2022/02/12 00:45:40;;;;;;;19.73;6.63;;;;;;;-0.58;71.30;100576.91;2617134;47;20030;-64
2022/02/12 00:48:12;;;;;;;13.70;6.20;;;;;;;-0.68;71.44;100572.28;2618414;54;20579;-63
2022/02/12 00:50:42;;;;;;;22.35;7.90;;;;;;;-0.66;71.71;100570.44;2618147;54;20039;-64
2022/02/12 00:53:12;;;;;;;21.20;8.15;;;;;;;-0.59;71.44;100569.22;2618381;54;20030;-62
2022/02/12 00:55:41;;;;;;;16.88;7.43;;;;;;;-0.60;71.30;100565.78;2620281;47;20030;-64
2022/02/12 00:58:11;;;;;;;18.25;6.65;;;;;;;-0.65;71.44;100561.75;2619754;47;20042;-64
2022/02/12 01:00:41;;;;;;;14.98;6.22;;;;;;;-0.71;71.84;100562.03;2619345;54;20039;-64
2022/02/12 01:03:15;;;;;;;19.42;6.85;;;;;;;-0.85;72.04;100562.75;2622015;54;20074;-64
2022/02/12 01:05:45;;;;;;;17.33;6.68;;;;;;;-0.83;71.84;100566.94;2621306;47;20604;-65
2022/02/12 01:08:15;;;;;;;14.98;6.18;;;;;;;-0.87;71.93;100569.75;2622553;54;20038;-62
2022/02/12 01:10:44;;;;;;;19.00;6.28;;;;;;;-0.90;72.00;100559.50;2622512;54;20027;-63
2022/02/12 01:13:15;;;;;;;15.77;6.88;;;;;;;-0.98;72.09;100557.34;2621130;39;20731;-65
2022/02/12 01:15:46;;;;;;;15.20;6.25;;;;;;;-0.97;72.12;100548.63;2619763;39;20429;-63
2022/02/12 01:18:19;;;;;;;15.27;6.20;;;;;;;-0.90;72.24;100546.53;2619094;54;20023;-65
2022/02/12 01:20:49;;;;;;;19.08;6.93;;;;;;;-0.90;72.07;100542.22;2618645;54;20034;-64
2022/02/12 01:23:19;;;;;;;19.17;7.03;;;;;;;-0.92;71.97;100545.78;2619117;54;20034;-65
2022/02/12 01:25:48;;;;;;;16.83;6.22;;;;;;;-0.97;72.14;100542.59;2621735;39;20415;-65
2022/02/12 01:28:20;;;;;;;13.70;5.97;;;;;;;-1.00;72.69;100536.63;2622515;54;20089;-65
2022/02/12 01:30:50;;;;;;;15.18;6.57;;;;;;;-0.94;72.83;100539.81;2621975;54;20046;-64
2022/02/12 01:33:24;;;;;;;17.92;7.32;;;;;;;-0.94;72.55;100539.81;2621355;31;20423;-63
2022/02/12 01:35:53;;;;;;;16.83;6.25;;;;;;;-0.96;72.59;100536.47;2618284;47;20034;-65
2022/02/12 01:38:27;;;;;;;14.02;6.63;;;;;;;-0.95;72.54;100544.16;2618980;54;20026;-65
2022/02/12 01:40:57;;;;;;;17.42;7.45;;;;;;;-0.96;72.45;100539.06;2619011;54;20014;-62
2022/02/12 01:43:27;;;;;;;17.17;6.63;;;;;;;-1.03;72.23;100538.53;2618021;54;20133;-64
2022/02/12 01:45:57;;;;;;;18.80;7.10;;;;;;;-1.08;72.53;100541.34;2618849;54;20030;-64
2022/02/12 01:48:29;;;;;;;21.23;7.65;;;;;;;-1.09;73.02;100546.63;2618738;54;20039;-63
2022/02/12 01:51:02;;;;;;;19.13;6.68;;;;;;;-1.07;73.03;100542.19;2618872;54;20030;-63
2022/02/12 01:53:31;;;;;;;11.88;6.15;;;;;;;-0.96;72.84;100533.88;2618323;54;20054;-63
2022/02/12 01:56:01;;;;;;;16.90;6.90;;;;;;;-0.92;71.66;100530.22;2619979;54;20027;-63
2022/02/12 01:58:31;;;;;;;13.48;5.70;;;;;;;-1.00;72.03;100530.59;2619519;54;20114;-63
2022/02/12 02:01:00;;;;;;;15.02;5.78;;;;;;;-1.01;72.23;100521.97;2618707;54;20034;-63
2022/02/12 02:03:33;;;;;;;19.15;6.22;;;;;;;-0.96;72.47;100519.13;2617934;51;20029;-63
2022/02/12 02:06:02;;;;;;;13.77;5.38;;;;;;;-0.90;72.65;100520.56;2618106;54;20208;-63
2022/02/12 02:08:32;;;;;;;17.95;6.22;;;;;;;-0.91;72.10;100521.50;2621204;54;20550;-62
2022/02/12 02:11:03;;;;;;;14.23;5.72;;;;;;;-1.01;72.09;100521.97;2622293;54;20022;-63
2022/02/12 02:13:33;;;;;;;17.17;6.50;;;;;;;-1.07;72.07;100518.81;2622527;54;20026;-62
2022/02/12 02:16:03;;;;;;;14.40;5.18;;;;;;;-1.07;72.07;100519.66;2619903;54;20026;-62
2022/02/12 02:18:35;;;;;;;23.02;7.40;;;;;;;-1.15;72.12;100513.19;2618746;54;20076;-63
2022/02/12 02:21:07;;;;;;;10.80;5.03;;;;;;;-1.20;72.17;100517.75;2618457;54;20022;-63
2022/02/12 02:23:41;;;;;;;15.88;5.50;;;;;;;-1.16;72.45;100514.09;2619103;39;20607;-63
2022/02/12 02:26:11;;;;;;;14.40;5.57;;;;;;;-1.16;72.31;100511.50;2618534;54;20110;-62
2022/02/12 02:28:41;;;;;;;19.92;6.22;;;;;;;-1.20;72.21;100507.38;2618704;54;20019;-63
2022/02/12 02:31:11;;;;;;;14.35;6.25;;;;;;;-1.19;72.23;100506.47;2618714;54;20065;-62
2022/02/12 02:33:40;;;;;;;19.70;5.55;;;;;;;-1.20;72.69;100505.63;2618689;54;20077;-63
2022/02/12 02:36:10;;;;;;;11.75;4.82;;;;;;;-1.22;72.47;100509.22;2618755;54;20023;-62
2022/02/12 02:38:42;;;;;;;16.70;5.28;;;;;;;-1.13;72.65;100501.81;2618099;54;20046;-64
2022/02/12 02:41:12;;;;;;;14.48;5.10;;;;;;;-1.10;72.77;100493.88;2618674;54;20061;-63
2022/02/12 02:43:42;;;;;;;18.95;5.45;;;;;;;-1.13;72.38;100494.03;2619351;31;20525;-62
2022/02/12 02:46:19;;;;;;;12.20;5.30;;;;;;;-1.25;72.41;100500.66;2618562;54;20034;-63
2022/02/12 02:48:48;;;;;;;14.27;5.22;;;;;;;-1.26;72.59;100504.19;2618413;54;20565;-63
2022/02/12 02:56:45;;;;;;;;;;;;;;;-1.47;72.77;100497.47;2618805;54;20112;-62
2022/02/12 02:59:14;;;;;;;14.13;5.40;;;;;;;-1.61;72.79;100495.50;2619099;54;19951;-63
2022/02/12 03:01:45;;;;;;;9.20;4.80;;;;;;;-1.68;72.96;100493.28;2618925;54;20080;-63
2022/02/12 03:04:14;;;;;;;11.60;5.25;;;;;;;-1.65;73.10;100500.94;2618778;54;20034;-63
2022/02/12 03:06:44;;;;;;;12.50;6.07;;;;;;;-1.67;73.35;100497.59;2619053;54;20050;-63
2022/02/12 03:09:17;;;;;;;12.60;5.47;;;;;;;-1.63;73.55;100494.75;2618732;54;20022;-63
2022/02/12 03:11:48;;;;;;;15.60;6.20;;;;;;;-1.64;73.13;100484.44;2618788;54;20038;-63
2022/02/12 03:14:17;;;;;;;15.63;6.07;;;;;;;-1.65;73.55;100485.38;2621710;54;20038;-62
2022/02/12 03:16:47;;;;;;;11.18;4.95;;;;;;;-1.67;73.54;100489.81;2622448;54;20054;-62
2022/02/12 03:19:16;;;;;;;13.05;4.88;;;;;;;-1.62;73.68;100493.00;2622730;54;20111;-63
2022/02/12 03:21:46;;;;;;;14.32;5.22;;;;;;;-1.66;73.14;100484.53;2622615;54;20572;-63
2022/02/12 03:24:18;;;;;;;18.58;4.88;;;;;;;-1.73;73.04;100488.31;2622600;54;20035;-63
2022/02/12 03:26:48;;;;;;;14.63;4.88;;;;;;;-1.79;73.91;100484.28;2622949;54;20030;-63
2022/02/12 03:29:17;;;;;;;13.23;5.45;;;;;;;-1.73;73.79;100470.19;2622207;54;20026;-63
2022/02/12 03:31:47;;;;;;;15.70;4.53;;;;;;;-1.76;73.54;100471.19;2621680;54;20065;-63
2022/02/12 03:34:16;;;;;;;13.82;4.85;;;;;;;-1.77;73.72;100468.66;2621982;54;20026;-63
2022/02/12 03:36:46;;;;;;;13.07;6.30;;;;;;;-1.74;73.56;100468.50;2621189;39;20406;-62
2022/02/12 03:39:18;;;;;;;13.07;4.97;;;;;;;-1.68;73.79;100462.16;2618853;54;20052;-62
2022/02/12 03:41:48;;;;;;;9.95;4.05;;;;;;;-1.65;73.44;100460.28;2618596;54;20058;-63
2022/02/12 03:44:17;;;;;;;15.05;4.97;;;;;;;-1.66;73.43;100456.00;2618665;54;20030;-64
2022/02/12 03:46:47;;;;;;;11.25;4.53;;;;;;;-1.64;73.62;100459.34;2617837;47;20077;-64
2022/02/12 03:49:18;;;;;;;11.55;5.03;;;;;;;-1.54;73.99;100454.56;2618394;54;20038;-61
2022/02/12 03:51:47;;;;;;;12.60;4.90;;;;;;;-1.49;73.64;100457.78;2618493;54;20034;-62
2022/02/12 03:54:21;;;;;;;13.02;4.20;;;;;;;-1.49;73.45;100442.22;2618678;39;20428;-63
2022/02/12 03:56:51;;;;;;;10.70;4.78;;;;;;;-1.61;73.18;100453.19;2618190;54;20038;-62
2022/02/12 03:59:20;;;;;;;12.90;4.78;;;;;;;-1.65;72.99;100446.47;2618230;54;20034;-63
2022/02/12 04:01:50;;;;;;;13.27;4.88;;;;;;;-1.72;72.65;100445.91;2618322;54;20149;-64
2022/02/12 04:04:21;;;;;;;11.70;4.25;;;;;;;-1.85;73.19;100443.09;2621147;54;20022;-63
2022/02/12 04:06:51;;;;;;;13.05;4.22;;;;;;;-1.91;73.21;100445.16;2621832;54;20573;-63
2022/02/12 04:09:23;;;;;;;9.07;4.20;;;;;;;-1.94;73.60;100442.69;2622057;54;20042;-63
2022/02/12 04:11:53;;;;;;;12.70;4.25;;;;;;;-1.92;73.43;100435.66;2622146;54;20655;-64
2022/02/12 04:14:24;;;;;;;13.25;4.60;;;;;;;-1.86;73.68;100430.22;2622110;54;20023;-63
2022/02/12 04:16:53;;;;;;;10.23;3.80;;;;;;;-1.82;73.62;100429.16;2622024;54;20037;-63
2022/02/12 04:19:23;;;;;;;11.73;4.10;;;;;;;-1.83;73.42;100432.66;2621795;54;20045;-64
2022/02/12 04:21:56;;;;;;;13.07;4.82;;;;;;;-1.86;73.47;100422.44;2620302;39;20458;-63
2022/02/12 04:24:29;;;;;;;9.75;3.83;;;;;;;-1.90;73.58;100421.72;2618006;54;20060;-61
2022/02/12 04:26:59;;;;;;;11.52;4.97;;;;;;;-1.89;73.66;100432.94;2618076;54;20080;-62
2022/02/12 04:29:29;;;;;;;10.90;4.22;;;;;;;-1.91;73.68;100427.00;2618685;54;20580;-62
2022/02/12 04:31:58;;;;;;;11.40;3.38;;;;;;;-1.94;73.72;100420.19;2618791;54;20026;-63
2022/02/12 04:34:29;;;;;;;6.70;4.38;;;;;;;-1.95;73.50;100415.09;2618585;54;20030;-64
2022/02/12 04:36:59;;;;;;;8.75;4.05;;;;;;;-2.03;73.61;100405.09;2619076;54;20085;-64
2022/02/12 04:39:33;;;;;;;11.75;4.38;;;;;;;-2.08;73.49;100401.91;2619111;54;20058;-62
2022/02/12 04:42:07;;;;;;;11.05;5.05;;;;;;;-2.09;74.03;100397.59;2618345;54;20118;-63
2022/02/12 04:44:37;;;;;;;16.25;5.40;;;;;;;-2.09;73.85;100401.03;2618714;54;20548;-63
2022/02/12 04:47:08;;;;;;;14.48;4.28;;;;;;;-2.10;73.90;100391.59;2618692;54;20098;-63
2022/02/12 04:49:40;;;;;;;12.88;4.57;;;;;;;-2.05;73.99;100399.97;2618662;54;20035;-62
2022/02/12 04:52:13;;;;;;;12.48;4.65;;;;;;;-2.08;74.12;100397.56;2619078;54;20031;-62
2022/02/12 04:54:46;;;;;;;12.05;4.35;;;;;;;-2.07;74.12;100399.22;2618092;54;20073;-62
2022/02/12 04:57:16;;;;;;;11.90;4.75;;;;;;;-2.02;74.37;100388.63;2618454;54;20038;-62
2022/02/12 04:59:46;;;;;;;12.10;4.85;;;;;;;-2.04;74.17;100391.31;2618863;54;20073;-63
2022/02/12 05:02:16;;;;;;;9.40;4.63;;;;;;;-2.08;73.72;100383.75;2618992;54;20061;-64
2022/02/12 05:04:46;;;;;;;13.60;5.13;;;;;;;-2.06;74.30;100385.34;2618664;54;20018;-62
2022/02/12 05:07:15;;;;;;;10.38;3.65;;;;;;;-2.09;73.88;100385.47;2619046;54;20057;-62
2022/02/12 05:09:48;;;;;;;21.17;4.57;;;;;;;-2.12;74.01;100383.06;2620577;54;20019;-62
2022/02/12 05:12:18;;;;;;;9.20;4.35;;;;;;;-2.18;73.69;100380.75;2619506;54;20069;-62
2022/02/12 05:14:48;;;;;;;10.00;4.45;;;;;;;-2.19;74.15;100375.66;2618475;54;20034;-65
2022/02/12 05:17:18;;;;;;;11.65;4.22;;;;;;;-2.13;74.44;100368.41;2617405;54;20327;-65
2022/02/12 05:19:48;;;;;;;13.45;5.05;;;;;;;-2.10;74.13;100368.25;2618739;39;20069;-65
2022/02/12 05:22:23;;;;;;;13.93;6.28;;;;;;;-2.15;73.79;100367.66;2618294;54;20153;-65
2022/02/12 05:24:55;;;;;;;21.55;6.47;;;;;;;-2.19;74.11;100363.53;2617932;54;20030;-65
2022/02/12 05:27:25;;;;;;;13.70;3.95;;;;;;;-2.20;74.13;100363.63;2618260;54;20069;-65
2022/02/12 05:29:54;;;;;;;11.52;3.85;;;;;;;-2.22;73.84;100360.25;2617591;47;20078;-65
2022/02/12 05:32:24;;;;;;;10.52;3.80;;;;;;;-2.22;74.10;100355.91;2618341;39;20429;-65
2022/02/12 05:34:54;;;;;;;7.40;3.78;;;;;;;-2.29;73.86;100354.50;2617888;54;20038;-66
2022/02/12 05:37:23;;;;;;;12.15;3.67;;;;;;;-2.27;74.26;100361.31;2618055;54;20042;-66
2022/02/12 05:39:55;;;;;;;14.63;4.63;;;;;;;-2.18;74.08;100357.44;2618175;39;20464;-66
2022/02/12 05:42:25;;;;;;;9.75;3.92;;;;;;;-2.20;73.52;100359.28;2618232;54;20077;-66
2022/02/12 05:44:54;;;;;;;9.90;4.20;;;;;;;-2.19;73.57;100348.00;2617812;54;20035;-66
2022/02/12 05:47:24;;;;;;;10.73;4.38;;;;;;;-2.19;73.91;100355.75;2620426;54;20057;-65
2022/02/12 05:49:53;;;;;;;14.77;4.63;;;;;;;-2.15;73.89;100351.28;2621676;47;20039;-66
2022/02/12 05:52:23;;;;;;;10.05;4.18;;;;;;;-2.22;73.79;100352.47;2620626;39;20455;-66
2022/02/12 05:54:55;;;;;;;9.98;4.00;;;;;;;-2.27;73.29;100350.94;2618188;54;20042;-66
2022/02/12 05:57:25;;;;;;;12.20;4.32;;;;;;;-2.35;73.79;100358.25;2621481;54;20030;-67
2022/02/12 05:59:54;;;;;;;11.00;4.65;;;;;;;-2.41;73.72;100355.97;2621889;54;20033;-65
2022/02/12 06:02:24;;;;;;;12.23;4.00;;;;;;;-2.44;73.60;100350.91;2621008;54;20038;-65
2022/02/12 06:04:54;;;;;;;10.23;4.25;;;;;;;-2.38;74.14;100347.19;2621380;39;20440;-65
2022/02/12 06:07:24;;;;;;;13.68;4.15;;;;;;;-2.31;73.74;100333.88;2622352;54;20030;-67
2022/02/12 06:09:56;;;;;;;10.95;4.07;;;;;;;-2.25;73.71;100331.00;2621998;54;20029;-67
2022/02/12 06:12:25;;;;;;;14.80;4.15;;;;;;;-2.22;73.72;100329.16;2624403;31;20528;-66
2022/02/12 06:14:55;;;;;;;11.90;3.72;;;;;;;-2.25;73.94;100324.94;2621982;54;20038;-66
2022/02/12 06:17:25;;;;;;;11.48;4.50;;;;;;;-2.27;73.44;100326.78;2622980;39;20433;-66
2022/02/12 06:19:57;;;;;;;15.25;4.10;;;;;;;-2.32;73.43;100323.59;2622827;54;20030;-66
2022/02/12 06:22:28;;;;;;;14.60;4.35;;;;;;;-2.34;73.82;100322.81;2623294;54;20034;-65
2022/02/12 06:25:01;;;;;;;15.80;5.13;;;;;;;-2.33;73.76;100315.00;2623199;54;20034;-66
2022/02/12 06:27:30;;;;;;;15.45;5.55;;;;;;;-2.28;73.89;100309.59;2624037;54;20026;-66
2022/02/12 06:30:00;;;;;;;12.32;4.72;;;;;;;-2.25;73.80;100320.63;2623430;54;20037;-66
2022/02/12 06:32:30;;;;;;;20.38;6.57;;;;;;;-2.22;73.89;100309.28;2623336;54;20030;-66
2022/02/12 06:35:00;;;;;;;24.08;7.38;;;;;;;-2.14;73.59;100309.72;2623990;54;20070;-66
2022/02/12 06:37:30;;;;;;;21.35;8.02;;;;;;;-2.12;73.61;100310.50;2624236;54;20035;-67
2022/02/12 06:40:03;;;;;;;20.05;6.70;;;;;;;-2.11;73.63;100291.44;2624822;54;20053;-66
2022/02/12 06:42:32;;;;;;;11.00;5.35;;;;;;;-2.14;73.06;100295.94;2624856;54;20030;-66
2022/02/12 06:45:03;;;;;;;13.38;5.65;;;;;;;-2.21;72.78;100299.75;2623473;54;20534;-66
2022/02/12 06:47:33;;;;;;;14.77;5.32;;;;;;;-2.17;73.11;100286.56;2623502;54;20027;-68
2022/02/12 06:50:05;;;;;;;13.13;4.75;;;;;;;-2.18;73.30;100299.59;2620927;54;20046;-66
2022/02/12 06:52:34;;;;;;;16.45;5.68;;;;;;;-2.19;72.98;100306.53;2621463;54;20157;-67
2022/02/12 06:55:11;;;;;;;13.35;5.95;;;;;;;-2.24;72.83;100295.56;2619772;54;20037;-65
2022/02/12 06:57:40;;;;;;;13.10;5.15;;;;;;;-2.23;73.33;100304.16;2622515;54;20034;-66
2022/02/12 07:00:11;;;;;;;12.55;4.90;;;;;;;-2.23;73.45;100296.41;2623787;54;20018;-68
2022/02/12 07:02:41;;;;;;;19.40;7.05;;;;;;;-2.21;73.85;100297.97;2624937;54;20037;-67
2022/02/12 07:05:14;;;;;;;19.15;4.97;;;;;;;-2.14;73.58;100303.72;2624700;39;20426;-69
2022/02/12 07:07:49;;;;;;;13.75;5.05;;;;;;;-2.08;73.82;100293.06;2623428;54;20037;-66
2022/02/12 07:10:21;;;;;;;15.98;5.50;;;;;;;-2.08;73.53;100287.88;2622805;39;20472;-66
2022/02/12 07:12:51;;;;;;;11.45;5.25;;;;;;;-2.11;73.98;100291.44;2620567;54;20038;-65
2022/02/12 07:15:20;;;;;;;12.18;5.30;;;;;;;-2.06;73.92;100288.63;2620791;47;20050;-66
2022/02/12 07:17:50;;;;;;;19.98;4.78;;;;;;;-1.99;74.00;100290.00;2621915;47;20034;-66
2022/02/12 07:20:19;;;;;;;14.25;5.10;;;;;;;-1.96;73.96;100289.00;2619496;54;20033;-66
2022/02/12 07:22:49;;;;;;;19.45;6.28;;;;;;;-1.95;74.47;100285.50;2617572;54;20031;-66
2022/02/12 07:25:22;;;;;;;20.08;6.60;;;;;;;-1.94;74.81;100287.19;2617648;54;20058;-66
2022/02/12 07:27:56;;;;;;;21.23;6.05;;;;;;;-1.90;74.37;100288.72;2617754;54;20560;-65
2022/02/12 07:30:26;;;;;;;19.02;5.45;;;;;;;-1.91;74.64;100289.63;2617865;54;20031;-66
2022/02/12 07:32:56;;;;;;;13.40;6.25;;;;;;;-1.85;74.67;100284.13;2618400;39;20414;-66
2022/02/12 07:35:25;;;;;;;22.00;6.32;;;;;;;-1.83;74.68;100283.13;2616860;47;20125;-66
2022/02/12 07:37:55;;;;;;;24.45;9.10;;;;;;;-1.77;74.92;100281.97;2617578;54;20065;-65
2022/02/12 07:40:27;;;;;;;22.25;8.98;;;;;;;-1.70;75.04;100287.69;2618046;39;20448;-67
2022/02/12 07:42:57;;;;;;;30.88;10.88;;;;;;;-1.62;74.69;100288.97;2617681;54;20031;-65
2022/02/12 07:45:28;;;;;;;24.65;11.05;;;;;;;-1.53;74.98;100285.91;2617414;54;20062;-67
2022/02/12 07:47:58;;;;;;;23.73;9.80;;;;;;;-1.45;74.72;100282.91;2617841;54;20038;-65
2022/02/12 07:50:28;;;;;;;25.75;9.70;;;;;;;-1.36;74.81;100281.59;2617025;54;20077;-66
2022/02/12 07:52:57;;;;;;;17.33;8.75;;;;;;;-1.31;74.50;100288.22;2617464;54;20054;-67
2022/02/12 07:55:30;;;;;;;19.88;9.05;;;;;;;-1.22;74.35;100294.69;2617309;54;20076;-67
2022/02/12 07:58:00;;;;;;;14.50;7.40;;;;;;;-1.20;74.30;100299.78;2616852;47;20035;-67
2022/02/12 08:00:30;;;;;;;19.25;7.68;;;;;;;-1.11;74.34;100294.94;2617956;39;20525;-66
2022/02/12 08:02:59;;;;;;;16.75;7.55;;;;;;;-1.00;74.22;100302.16;2617402;54;20038;-65
2022/02/12 08:05:29;;;;;;;21.23;7.68;;;;;;;-0.87;74.69;100297.97;2617519;54;20069;-67
2022/02/12 08:07:56;;;;;;;21.48;8.07;;;;;;;-0.75;74.10;100304.25;2617719;47;20041;-66
2022/02/12 08:13:11;;;;;;;24.13;10.15;;;;;;;-0.55;73.73;100303.16;2618217;54;20039;-66
2022/02/12 08:15:40;;;;;;;24.65;9.30;;;;;;;-0.49;73.88;100300.25;2617665;47;20068;-67
2022/02/12 08:18:10;;;;;;;20.73;9.20;;;;;;;-0.42;73.99;100298.94;2617613;47;20549;-67
2022/02/12 08:20:39;;;;;;;19.10;8.52;;;;;;;-0.32;73.78;100305.31;2618375;54;20122;-68
2022/02/12 08:23:09;;;;;;;25.83;8.77;;;;;;;-0.26;73.42;100298.91;2618388;54;20081;-66
2022/02/12 08:25:39;;;;;;;19.17;9.25;;;;;;;-0.21;73.03;100293.47;2618114;54;20035;-67
2022/02/12 08:28:11;;;;;;;17.58;8.57;;;;;;;-0.14;73.20;100300.81;2618187;54;20578;-68
2022/02/12 08:30:41;;;;;;;17.55;8.32;;;;;;;-0.04;73.05;100299.38;2618226;54;20656;-68
2022/02/12 08:33:10;;;;;;;22.65;10.07;;;;;;;0.13;73.31;100290.59;2618075;54;20178;-67
2022/02/12 08:35:55;;;;;;;;;;;;;;;0.31;73.11;100295.63;2618308;54;20038;-67
2022/02/12 08:38:24;;;;;;;14.85;8.05;;;;;;;0.40;72.93;100301.13;2617768;54;19939;-66
2022/02/12 08:40:56;;;;;;;24.92;8.85;;;;;;;0.48;73.07;100296.28;2617634;47;20027;-67
2022/02/12 08:43:28;;;;;;;26.63;12.05;;;;;;;0.54;72.96;100291.69;2618137;54;20036;-67
2022/02/12 08:46:01;;;;;;;23.20;12.43;;;;;;;0.59;72.60;100302.63;2617482;54;20027;-67
2022/02/12 08:48:31;;;;;;;17.88;9.70;;;;;;;0.67;72.50;100298.63;2619092;39;20407;-65
2022/02/12 08:51:01;;;;;;;32.25;10.00;;;;;;;0.73;72.54;100294.81;2618255;54;20033;-66
2022/02/12 08:53:30;;;;;;;20.85;9.63;;;;;;;0.81;72.25;100289.16;2617626;54;20057;-65
2022/02/12 08:56:00;;;;;;;47.88;25.27;;;;;;;0.94;72.58;100293.53;2620250;54;20034;-68
2022/02/12 08:58:33;;;;;;;24.92;12.32;;;;;;;1.11;72.61;100296.84;2623188;54;20571;-66
2022/02/12 09:01:03;;;;;;;21.17;9.65;;;;;;;1.22;71.70;100295.25;2619289;54;20027;-66
2022/02/12 09:03:32;;;;;;;19.50;8.77;;;;;;;1.28;71.79;100294.00;2617968;54;20561;-65
2022/02/12 09:06:02;;;;;;;18.75;7.78;;;;;;;1.37;71.46;100292.59;2617393;54;20057;-67
2022/02/12 09:08:32;;;;;;;18.27;7.93;;;;;;;1.44;71.05;100293.88;2618304;54;20058;-66
2022/02/12 09:11:01;;;;;;;21.08;7.82;;;;;;;1.58;71.23;100287.78;2618984;54;20031;-66
2022/02/12 09:13:33;;;;;;;21.55;7.60;;;;;;;1.68;70.80;100283.66;2618581;54;20565;-66
2022/02/12 09:16:03;;;;;;;22.27;7.60;;;;;;;1.81;70.46;100283.69;2620054;54;20081;-66
2022/02/12 09:18:33;;;;;;;19.58;7.90;;;;;;;1.93;70.14;100282.88;2618046;54;20034;-66
2022/02/12 09:21:02;;;;;;;21.73;8.57;;;;;;;1.99;69.57;100288.50;2618136;54;20035;-65
2022/02/12 09:23:39;;;;;;;40.65;8.38;;;;;;;2.06;69.31;100277.69;2618672;54;20034;-66
2022/02/12 09:26:12;;;;;;;18.15;7.05;;;;;;;2.18;69.77;100276.84;2616524;47;20037;-66
2022/02/12 09:28:44;;;;;;;18.40;8.15;;;;;;;2.30;69.28;100273.41;2617377;47;20045;-67
2022/02/12 09:31:14;;;;;;;15.43;6.65;;;;;;;2.43;68.93;100266.41;2618255;54;20027;-66
2022/02/12 09:33:43;;;;;;;19.83;6.68;;;;;;;2.55;68.13;100269.97;2617242;47;20023;-67
2022/02/12 09:36:13;;;;;;;16.65;7.15;;;;;;;2.65;68.57;100271.03;2617946;54;20034;-65
2022/02/12 09:38:43;;;;;;;16.70;6.45;;;;;;;2.79;67.53;100266.59;2618141;54;20089;-67
2022/02/12 09:41:15;;;;;;;16.67;5.57;;;;;;;2.87;67.28;100262.50;2617650;51;20030;-67
2022/02/12 09:43:49;;;;;;;12.40;4.93;;;;;;;2.96;66.96;100264.47;2618190;54;20043;-67
2022/02/12 09:46:49;;;;;;;13.20;5.90;;;;;;;3.04;66.03;100266.53;2617480;47;20030;-66
2022/02/12 09:49:19;;;;;;;15.70;4.70;;;;;;;3.12;66.18;100258.16;2618026;54;20620;-66
2022/02/12 09:51:51;;;;;;;12.50;4.65;;;;;;;3.24;65.97;100262.53;2618247;54;20027;-67
2022/02/12 09:54:22;;;;;;;12.52;4.47;;;;;;;3.30;65.47;100264.69;2617815;54;20066;-66
2022/02/12 09:56:52;;;;;;;15.88;5.47;;;;;;;3.39;65.20;100257.97;2619021;54;20062;-68
2022/02/12 09:59:24;;;;;;;13.85;5.13;;;;;;;3.44;64.96;100253.25;2622040;39;20461;-67
2022/02/12 10:01:53;;;;;;;14.10;5.65;;;;;;;3.59;65.02;100246.91;2620414;54;20046;-66
2022/02/12 10:04:25;;;;;;;11.25;4.63;;;;;;;3.69;64.49;100242.63;2620662;39;20445;-67
2022/02/12 10:06:54;;;;;;;15.45;4.97;;;;;;;3.81;64.86;100240.91;2620223;39;20426;-65
2022/02/12 10:09:24;;;;;;;14.02;7.60;;;;;;;3.96;64.15;100237.16;2620571;54;20038;-67
2022/02/12 10:11:54;;;;;;;13.48;4.47;;;;;;;4.06;63.99;100234.66;2621613;54;20042;-68
2022/02/12 10:14:37;;;;;;;8.95;4.82;;;;;;;4.25;64.16;100220.19;2621687;54;20042;-66
2022/02/12 10:17:07;;;;;;;11.60;4.38;;;;;;;4.28;62.06;100218.16;2621956;54;20034;-68
2022/02/12 10:19:38;;;;;;;10.52;4.07;;;;;;;4.19;63.16;100217.06;2620726;54;20038;-67
2022/02/12 10:22:15;;;;;;;12.43;4.50;;;;;;;4.27;62.22;100213.03;2618129;54;20122;-68
2022/02/12 10:24:50;;;;;;;13.13;4.30;;;;;;;4.31;62.44;100214.47;2617924;54;20030;-67
2022/02/12 10:27:20;;;;;;;17.85;4.35;;;;;;;4.35;61.45;100214.13;2619927;47;20542;-68
2022/02/12 10:29:53;;;;;;;11.90;4.13;;;;;;;4.41;62.02;100204.97;2620528;54;20030;-66
2022/02/12 10:32:24;;;;;;;18.60;7.43;;;;;;;4.51;61.90;100203.28;2620541;54;20085;-67
2022/02/12 10:34:56;;;;;;;11.65;4.53;;;;;;;4.55;61.11;100203.88;2621337;54;20029;-67
2022/02/12 10:37:27;;;;;;;13.35;4.90;;;;;;;4.62;60.17;100199.84;2620232;54;20041;-72
2022/02/12 10:39:59;;;;;;;15.43;4.65;;;;;;;4.62;61.04;100197.22;2620588;54;20034;-67
2022/02/12 10:42:30;;;;;;;13.02;6.25;;;;;;;4.71;59.72;100192.09;2620016;54;20045;-68
2022/02/12 10:45:11;;;;;;;12.52;6.57;;;;;;;4.71;59.45;100184.22;2617289;54;20038;-66
2022/02/12 10:47:42;;;;;;;12.50;4.95;;;;;;;4.80;59.53;100184.44;2617271;47;20042;-67
2022/02/12 10:50:12;;;;;;;13.27;5.78;;;;;;;4.84;59.43;100183.25;2618940;54;20034;-68
2022/02/12 10:52:44;;;;;;;11.90;4.97;;;;;;;4.94;59.15;100171.09;2617914;54;20042;-67
2022/02/12 10:55:35;;;;;;;11.13;4.35;;;;;;;4.99;58.50;100163.69;2617528;54;20046;-66
2022/02/12 11:00:48;;;;;;;13.23;4.13;;;;;;;5.10;58.57;100162.81;2621824;54;20150;-64
2022/02/12 11:03:20;;;;;;;15.20;4.35;;;;;;;5.18;57.97;100158.63;2622697;54;20041;-63
2022/02/12 11:05:52;;;;;;;12.05;3.42;;;;;;;5.18;56.91;100149.91;2622326;54;20030;-64
2022/02/12 11:08:23;;;;;;;8.20;3.90;;;;;;;5.24;57.36;100146.78;2620039;54;20042;-63
2022/02/12 11:10:53;;;;;;;8.38;3.80;;;;;;;5.31;57.36;100137.47;2619199;54;20034;-65
2022/02/12 11:13:24;;;;;;;17.70;5.85;;;;;;;5.47;56.26;100140.50;2620115;39;20422;-65
2022/02/12 11:15:56;;;;;;;15.85;7.53;;;;;;;5.50;55.24;100128.91;2618451;47;20038;-62
2022/02/12 11:18:29;;;;;;;11.13;6.05;;;;;;;5.44;55.63;100124.19;2618629;54;20045;-63
2022/02/12 11:20:59;;;;;;;8.23;3.42;;;;;;;5.52;55.94;100113.06;2619231;54;20027;-64
2022/02/12 11:23:30;;;;;;;10.18;3.50;;;;;;;5.68;56.24;100105.56;2620039;54;20034;-63
2022/02/12 11:26:22;;;;;;;10.27;3.55;;;;;;;5.77;54.93;100096.06;2619437;54;20557;-63
2022/02/12 11:28:52;;;;;;;6.53;3.25;;;;;;;5.79;54.08;100087.09;2618759;54;20581;-63
2022/02/12 11:31:27;;;;;;;13.45;4.10;;;;;;;5.86;53.17;100084.78;2618015;54;20058;-65
2022/02/12 11:34:13;;;;;;;8.10;3.58;;;;;;;5.87;53.64;100082.03;2618593;46;20081;-63
2022/02/12 11:36:45;;;;;;;8.95;3.90;;;;;;;5.91;52.02;100078.19;2618089;54;20026;-64
2022/02/12 11:39:18;;;;;;;9.10;4.30;;;;;;;5.91;52.32;100067.69;2618264;54;20546;-64
2022/02/12 11:41:49;;;;;;;9.15;3.28;;;;;;;5.98;52.61;100054.91;2618485;54;20050;-64
2022/02/12 11:44:43;;;;;;;8.98;3.10;;;;;;;6.11;51.28;100052.88;2618006;54;20385;-63
2022/02/12 11:47:16;;;;;;;9.00;3.38;;;;;;;6.24;52.16;100054.41;2618389;54;20027;-63